Time;durP1;ratioP1;P1;durP2;ratioP2;P2;SDS_P1;SDS_P2;PMS_P1;PMS_P2;Temp;Humidity;BMP_temperature;BMP_pressure;BME280_temperature;BME280_humidity;BME280_pressure;Samples;Min_cycle;Max_cycle;Signal;HPM_P1;HPM_P2
2022/04/26 03:36:53;;;;;;;;;;;8.00;99.90;;;;;;5071911;28;20047;-69
2022/04/26 03:39:58;;;;;;;17.60;6.53;;;8.00;99.90;;;;;;5072031;28;19915;-69
2022/04/26 03:43:03;;;;;;;17.90;6.85;;;8.00;99.90;;;;;;5071863;28;20490;-69
2022/04/26 03:46:07;;;;;;;15.73;6.60;;;8.00;99.90;;;;;;5071641;28;20525;-69
2022/04/26 03:49:11;;;;;;;17.83;6.85;;;8.00;99.90;;;;;;5071871;28;20052;-67
2022/04/26 03:52:15;;;;;;;21.73;8.10;;;7.90;99.90;;;;;;5071939;28;20718;-67
2022/04/26 03:55:20;;;;;;;19.63;8.60;;;7.70;99.90;;;;;;5071513;28;20096;-67
2022/04/26 03:58:26;;;;;;;14.90;7.93;;;7.60;99.90;;;;;;5071193;28;20040;-67
2022/04/26 04:01:30;;;;;;;23.70;8.13;;;7.60;99.90;;;;;;5071768;28;20394;-69
2022/04/26 04:04:34;;;;;;;20.02;8.98;;;7.50;99.90;;;;;;5071749;28;20056;-69
2022/04/26 04:07:38;;;;;;;16.88;9.88;;;7.50;99.90;;;;;;5071559;28;20051;-69
2022/04/26 04:10:45;;;;;;;28.33;14.13;;;7.40;99.90;;;;;;5071754;28;20059;-68
2022/04/26 04:13:49;;;;;;;21.65;10.80;;;7.40;99.90;;;;;;5071624;28;20055;-69
2022/04/26 04:16:56;;;;;;;27.40;12.20;;;7.30;99.90;;;;;;5071311;28;20387;-68
2022/04/26 04:20:01;;;;;;;21.05;10.30;;;7.30;99.90;;;;;;5071265;28;20051;-69
2022/04/26 04:23:06;;;;;;;26.13;9.70;;;7.30;99.90;;;;;;5071515;28;20490;-69
2022/04/26 04:26:10;;;;;;;31.95;13.60;;;7.30;99.90;;;;;;5071031;28;20119;-67
2022/04/26 04:29:14;;;;;;;25.25;10.10;;;7.40;99.90;;;;;;5071243;28;20391;-67
2022/04/26 04:32:18;;;;;;;23.15;9.82;;;7.50;99.90;;;;;;5070934;28;20047;-69
2022/04/26 04:35:22;;;;;;;16.73;8.88;;;7.50;99.90;;;;;;5071467;28;20050;-68
2022/04/26 04:38:28;;;;;;;15.25;8.32;;;7.50;99.90;;;;;;5070977;28;20510;-68
2022/04/26 04:41:38;;;;;;;21.35;9.02;;;7.50;99.90;;;;;;5070745;28;20047;-69
2022/04/26 04:44:41;;;;;;;31.23;9.20;;;7.50;99.90;;;;;;5070424;28;20506;-69
2022/04/26 04:47:46;;;;;;;12.02;7.35;;;7.60;99.90;;;;;;5070060;28;20048;-69
2022/04/26 04:50:50;;;;;;;19.33;8.07;;;7.70;99.90;;;;;;5070600;28;20047;-69
2022/04/26 04:53:54;;;;;;;20.95;9.02;;;7.70;99.90;;;;;;5070500;28;20044;-69
2022/04/26 04:57:03;;;;;;;18.40;7.43;;;7.80;99.90;;;;;;5070048;28;20044;-69
2022/04/26 05:00:08;;;;;;;18.90;8.18;;;7.90;99.90;;;;;;5070454;28;20115;-69
2022/04/26 05:03:12;;;;;;;18.90;7.40;;;8.00;99.90;;;;;;5070153;28;20051;-69
2022/04/26 05:06:16;;;;;;;18.02;7.13;;;8.20;99.90;;;;;;5070274;28;20039;-68
2022/04/26 05:09:20;;;;;;;16.52;6.68;;;8.30;99.90;;;;;;5069518;28;20052;-68
2022/04/26 05:12:26;;;;;;;19.63;7.25;;;8.40;99.90;;;;;;5070463;28;20043;-69
2022/04/26 05:15:30;;;;;;;18.10;7.05;;;8.40;99.90;;;;;;5070212;28;20052;-69
2022/04/26 05:18:35;;;;;;;20.92;6.88;;;8.30;99.90;;;;;;5070271;28;20051;-69
2022/04/26 05:21:39;;;;;;;15.57;7.70;;;8.40;99.90;;;;;;5058038;28;20043;-69
2022/04/26 05:24:58;;;;;;;14.25;6.95;;;8.50;99.90;;;;;;5051557;28;20064;-69
2022/04/26 05:28:03;;;;;;;15.55;6.93;;;9.30;99.90;;;;;;5049853;28;20056;-69
2022/04/26 05:31:08;;;;;;;16.45;6.05;;;11.10;99.90;;;;;;5050446;28;20048;-67
2022/04/26 05:34:13;;;;;;;9.13;5.18;;;13.10;99.90;;;;;;5050213;28;20036;-67
2022/04/26 05:37:16;;;;;;;13.43;4.43;;;15.20;99.90;;;;;;5049806;28;20044;-69
2022/04/26 05:40:21;;;;;;;11.80;4.75;;;16.20;99.90;;;;;;5050183;28;20047;-67
2022/04/26 05:43:26;;;;;;;14.95;4.68;;;16.40;99.90;;;;;;5050068;28;20518;-68
2022/04/26 05:46:30;;;;;;;8.60;4.15;;;17.70;99.90;;;;;;5049973;28;20048;-67
2022/04/26 05:49:35;;;;;;;15.05;4.93;;;17.60;99.90;;;;;;5050010;28;20391;-67
2022/04/26 05:52:39;;;;;;;9.23;3.85;;;18.20;99.90;;;;;;5050080;28;20052;-67
2022/04/26 05:55:43;;;;;;;7.95;3.83;;;18.70;99.90;;;;;;5050182;28;20048;-68
2022/04/26 05:58:47;;;;;;;9.77;4.15;;;18.70;99.90;;;;;;5049817;28;20052;-67
2022/04/26 06:01:51;;;;;;;6.97;3.33;;;19.50;99.90;;;;;;5050155;28;20056;-67
2022/04/26 06:04:55;;;;;;;7.53;3.40;;;20.20;99.90;;;;;;5050959;28;20040;-67
2022/04/26 06:07:59;;;;;;;7.97;3.63;;;20.00;99.90;;;;;;5068128;28;20052;-67
2022/04/26 06:11:04;;;;;;;7.05;3.80;;;19.60;99.90;;;;;;5055915;28;20044;-67
2022/04/26 06:14:08;;;;;;;9.85;3.88;;;20.00;99.90;;;;;;5063740;28;20044;-67
2022/04/26 06:17:12;;;;;;;11.23;3.58;;;20.30;99.90;;;;;;5064826;28;20041;-68
2022/04/26 06:20:17;;;;;;;12.48;4.32;;;20.90;99.90;;;;;;5058420;28;20049;-67
2022/04/26 06:23:20;;;;;;;9.57;3.92;;;20.70;99.90;;;;;;5062437;28;20043;-67
2022/04/26 06:26:25;;;;;;;9.48;3.45;;;21.70;99.90;;;;;;5062630;28;20406;-67
2022/04/26 06:29:30;;;;;;;10.82;3.88;;;22.00;99.90;;;;;;5064425;28;20391;-67
2022/04/26 06:32:34;;;;;;;14.82;4.45;;;22.50;99.90;;;;;;5063630;28;20036;-69
2022/04/26 06:35:40;;;;;;;12.60;4.40;;;22.70;99.90;;;;;;5068559;28;20398;-67
2022/04/26 06:38:43;;;;;;;10.23;4.07;;;22.80;99.90;;;;;;5064063;28;20048;-67
2022/04/26 06:41:47;;;;;;;11.48;4.68;;;22.60;99.90;;;;;;5058606;28;20104;-67
2022/04/26 06:44:52;;;;;;;9.27;4.25;;;21.40;99.90;;;;;;5046045;28;20060;-68
2022/04/26 06:47:58;;;;;;;12.15;4.10;;;20.70;99.90;;;;;;5066689;28;20246;-67
2022/04/26 06:51:03;;;;;;;13.98;4.32;;;20.90;99.90;;;;;;5071704;28;20509;-67
2022/04/26 06:54:08;;;;;;;10.68;4.35;;;19.60;99.90;;;;;;5065374;28;20044;-67
2022/04/26 06:57:12;;;;;;;9.45;4.18;;;19.50;99.90;;;;;;5066016;28;20036;-68
2022/04/26 07:00:16;;;;;;;10.43;4.45;;;20.80;99.90;;;;;;5066780;28;20390;-67
2022/04/26 07:03:20;;;;;;;11.43;3.83;;;21.50;99.90;;;;;;5068478;28;20051;-67
2022/04/26 07:06:25;;;;;;;10.32;4.15;;;19.80;99.90;;;;;;5069358;28;20039;-67
2022/04/26 07:09:29;;;;;;;11.68;3.50;;;20.60;99.90;;;;;;5052235;28;20041;-67
2022/04/26 07:12:32;;;;;;;7.47;3.65;;;22.30;99.90;;;;;;5065355;28;20031;-67
2022/04/26 07:15:36;;;;;;;10.13;3.30;;;22.00;99.90;;;;;;5068044;28;20048;-67
2022/04/26 07:18:41;;;;;;;10.75;3.95;;;22.20;99.90;;;;;;5064752;28;20040;-67
2022/04/26 07:21:47;;;;;;;9.15;3.55;;;21.10;99.90;;;;;;5062372;28;20501;-68
2022/04/26 07:24:52;;;;;;;8.70;3.95;;;20.30;99.90;;;;;;5061008;28;20052;-67
2022/04/26 07:27:56;;;;;;;10.65;4.00;;;22.20;99.90;;;;;;5065760;28;20044;-67
2022/04/26 07:31:00;;;;;;;9.20;3.80;;;21.50;99.90;;;;;;5056905;28;20063;-67
2022/04/26 07:34:23;;;;;;;10.65;4.05;;;21.10;99.90;;;;;;5063200;28;20043;-67
2022/04/26 07:37:27;;;;;;;10.75;4.20;;;21.00;99.90;;;;;;5064941;28;20036;-68
2022/04/26 07:40:32;;;;;;;9.93;4.40;;;19.80;99.90;;;;;;5066865;28;20039;-67
2022/04/26 07:43:36;;;;;;;17.40;4.95;;;18.90;99.90;;;;;;5062276;28;20730;-67
2022/04/26 07:46:45;;;;;;;8.88;3.60;;;19.30;99.90;;;;;;5061226;28;20035;-67
2022/04/26 07:49:49;;;;;;;12.27;3.55;;;21.20;99.90;;;;;;5065579;28;20494;-67
2022/04/26 07:52:52;;;;;;;13.57;4.40;;;23.20;99.90;;;;;;5067335;28;20055;-67
2022/04/26 07:55:56;;;;;;;7.78;3.80;;;21.70;99.90;;;;;;5067879;28;20048;-67
2022/04/26 07:59:03;;;;;;;10.05;3.80;;;22.60;99.90;;;;;;5063399;28;20474;-67
2022/04/26 08:02:09;;;;;;;9.95;3.58;;;24.90;99.30;;;;;;5066694;28;20044;-66
2022/04/26 08:05:14;;;;;;;11.70;4.00;;;26.00;97.40;;;;;;5065007;28;20048;-69
2022/04/26 08:08:18;;;;;;;9.20;3.78;;;25.10;98.10;;;;;;5060210;28;20039;-67
2022/04/26 08:11:22;;;;;;;13.25;4.05;;;23.50;99.90;;;;;;5060996;28;20486;-67
2022/04/26 08:14:27;;;;;;;12.70;3.30;;;23.80;99.70;;;;;;5056900;28;20043;-67
2022/04/26 08:17:30;;;;;;;11.13;3.58;;;22.60;99.90;;;;;;5068362;28;20043;-69
2022/04/26 08:20:35;;;;;;;7.28;2.70;;;24.50;99.20;;;;;;5061843;28;20067;-69
2022/04/26 08:27:22;;;;;;;4.80;2.25;;;27.50;97.10;;;;;;5061528;28;20047;-67
2022/04/26 08:30:26;;;;;;;5.10;2.10;;;30.20;91.80;;;;;;5060720;28;20158;-67
2022/04/26 08:33:34;;;;;;;5.38;2.40;;;31.20;90.70;;;;;;5061760;28;20375;-68
2022/04/26 08:36:38;;;;;;;5.10;2.03;;;29.70;89.30;;;;;;5066483;28;20043;-67
2022/04/26 08:39:43;;;;;;;9.13;2.10;;;27.30;90.40;;;;;;5061792;28;20387;-67
2022/04/26 08:42:51;;;;;;;7.03;2.05;;;28.00;91.10;;;;;;5065494;28;20051;-66
2022/04/26 08:45:58;;;;;;;6.55;1.67;;;29.30;87.60;;;;;;5065443;28;20068;-69
2022/04/26 08:52:44;;;;;;;5.28;1.90;;;30.50;81.60;;;;;;5060056;28;20040;-66
2022/04/26 08:55:55;;;;;;;6.22;1.85;;;32.50;79.80;;;;;;5064093;28;20040;-70
2022/04/26 08:59:01;;;;;;;5.13;1.63;;;33.40;82.50;;;;;;5057250;28;20048;-70
2022/04/26 09:02:22;;;;;;;6.07;1.95;;;31.60;74.70;;;;;;5061214;28;20398;-70
2022/04/26 09:05:26;;;;;;;7.68;1.85;;;25.60;81.80;;;;;;5064093;28;20395;-69
2022/04/26 09:08:30;;;;;;;7.93;1.80;;;26.20;86.60;;;;;;5062060;28;20047;-68
2022/04/26 09:11:34;;;;;;;7.20;1.67;;;28.60;83.90;;;;;;5056405;28;20036;-68
2022/04/26 09:14:48;;;;;;;7.82;1.77;;;31.80;78.90;;;;;;5063469;28;20127;-68
2022/04/26 09:18:17;;;;;;;4.85;1.90;;;30.30;77.30;;;;;;5061225;28;20044;-69
2022/04/26 09:21:26;;;;;;;5.72;2.15;;;27.10;81.90;;;;;;5062825;28;20068;-69
2022/04/26 09:24:56;;;;;;;3.70;1.80;;;23.60;86.70;;;;;;5059403;28;20048;-69
2022/04/26 09:28:01;;;;;;;4.88;1.85;;;23.70;88.30;;;;;;5064136;28;20051;-68
2022/04/26 09:31:32;;;;;;;5.43;1.90;;;24.10;87.20;;;;;;5058588;28;20051;-69
2022/04/26 09:34:38;;;;;;;7.43;1.90;;;23.50;89.70;;;;;;5064659;28;20056;-69
2022/04/26 09:37:43;;;;;;;5.70;2.00;;;24.50;87.50;;;;;;5062573;28;20047;-69
2022/04/26 09:40:47;;;;;;;5.18;1.98;;;26.50;86.20;;;;;;5057856;28;20387;-67
2022/04/26 09:44:07;;;;;;;8.15;2.28;;;27.30;85.50;;;;;;5058929;28;20048;-68
2022/04/26 09:47:11;;;;;;;5.10;1.65;;;27.90;83.20;;;;;;5056763;28;20044;-69
2022/04/26 09:50:17;;;;;;;4.85;1.80;;;29.10;81.00;;;;;;5064527;28;20051;-69
2022/04/26 09:53:21;;;;;;;5.13;2.15;;;30.80;78.70;;;;;;5064686;28;20044;-68
2022/04/26 09:56:27;;;;;;;6.93;2.05;;;30.40;81.20;;;;;;5069400;28;20047;-67
2022/04/26 09:59:42;;;;;;;9.82;2.13;;;31.50;83.20;;;;;;5064510;28;20044;-69
2022/04/26 10:02:53;;;;;;;4.32;1.85;;;33.30;77.40;;;;;;5069921;28;20055;-66
2022/04/26 10:06:02;;;;;;;4.90;1.95;;;35.60;73.80;;;;;;5067893;28;20040;-66
2022/04/26 10:09:08;;;;;;;11.40;2.10;;;33.60;73.70;;;;;;5069195;28;20044;-66
2022/04/26 10:12:14;;;;;;;5.28;1.80;;;27.40;76.30;;;;;;5065338;28;20490;-68
2022/04/26 10:15:18;;;;;;;6.00;1.95;;;27.10;81.60;;;;;;5066703;28;20364;-68
2022/04/26 10:18:29;;;;;;;5.13;1.70;;;24.10;83.60;;;;;;5072350;28;20048;-68
2022/04/26 10:21:39;;;;;;;8.05;2.30;;;24.50;84.40;;;;;;5072007;28;20059;-68
2022/04/26 10:25:12;;;;;;;9.32;2.88;;;24.30;87.10;;;;;;5062045;28;20052;-68
2022/04/26 10:28:16;;;;;;;8.57;2.28;;;26.30;83.20;;;;;;5059439;28;20055;-68
2022/04/26 10:31:36;;;;;;;4.82;1.88;;;22.80;86.60;;;;;;5060438;28;20055;-69
2022/04/26 10:34:41;;;;;;;3.70;1.65;;;27.20;86.00;;;;;;5067402;28;20051;-67
2022/04/26 10:38:05;;;;;;;6.55;2.28;;;31.70;82.30;;;;;;5062537;28;20043;-67
2022/04/26 10:41:10;;;;;;;3.22;1.50;;;32.10;74.20;;;;;;5067435;28;20119;-69
2022/04/26 10:44:14;;;;;;;4.78;1.88;;;32.70;74.20;;;;;;5050676;28;20506;-69
2022/04/26 10:47:20;;;;;;;4.70;1.90;;;30.60;78.10;;;;;;5058428;28;20040;-66
2022/04/26 10:50:31;;;;;;;8.32;2.45;;;30.40;77.80;;;;;;5030039;28;20043;-66
2022/04/26 10:53:45;;;;;;;7.55;1.98;;;29.30;80.80;;;;;;5069770;28;20055;-69
2022/04/26 10:56:49;;;;;;;6.18;2.17;;;27.80;81.30;;;;;;5063187;28;20047;-69
2022/04/26 11:00:01;;;;;;;7.43;2.22;;;27.10;80.30;;;;;;5057853;28;20039;-71
2022/04/26 11:03:07;;;;;;;8.18;1.90;;;29.80;77.20;;;;;;5073284;28;20047;-68
2022/04/26 11:06:11;;;;;;;6.75;2.08;;;29.10;79.20;;;;;;5061025;28;20048;-70
2022/04/26 11:09:16;;;;;;;5.28;2.05;;;31.40;77.30;;;;;;5064652;28;20043;-69
2022/04/26 11:12:27;;;;;;;4.45;2.00;;;30.20;73.10;;;;;;5067233;28;20044;-70
2022/04/26 11:15:31;;;;;;;3.90;1.75;;;31.20;77.40;;;;;;5057952;28;20035;-67
2022/04/26 11:18:35;;;;;;;9.38;2.17;;;30.50;75.10;;;;;;5063433;28;20067;-67
2022/04/26 11:21:40;;;;;;;5.68;2.13;;;29.40;77.20;;;;;;5067434;28;20486;-69
2022/04/26 11:28:14;;;;;;;5.00;2.00;;;25.40;80.30;;;;;;5056054;28;20048;-69
2022/04/26 11:31:18;;;;;;;5.00;2.20;;;25.20;84.70;;;;;;5061595;28;20040;-68
2022/04/26 11:34:42;;;;;;;4.95;2.15;;;25.50;85.50;;;;;;5066439;28;20047;-68
2022/04/26 11:37:53;;;;;;;7.30;2.35;;;25.60;86.70;;;;;;5062212;28;20106;-68
2022/04/26 11:40:59;;;;;;;9.05;2.53;;;25.70;86.30;;;;;;5061439;28;20060;-69
2022/04/26 11:44:06;;;;;;;7.65;2.38;;;25.80;87.30;;;;;;5064867;28;20051;-70
2022/04/26 11:47:13;;;;;;;6.47;2.22;;;27.00;87.50;;;;;;5070597;28;20047;-69
2022/04/26 11:50:20;;;;;;;5.60;2.20;;;27.60;85.60;;;;;;5060035;28;20043;-69
2022/04/26 11:53:26;;;;;;;8.43;2.10;;;27.30;83.50;;;;;;5061766;28;20039;-70
2022/04/26 11:56:30;;;;;;;4.50;2.13;;;26.90;85.20;;;;;;5063239;28;20051;-69
2022/04/26 11:59:35;;;;;;;5.68;2.40;;;27.40;86.80;;;;;;5059749;28;20387;-69
2022/04/26 12:02:39;;;;;;;3.97;2.03;;;29.60;82.30;;;;;;5055461;28;20518;-70
2022/04/26 12:05:44;;;;;;;6.18;1.65;;;31.90;81.80;;;;;;5061424;28;20518;-70
2022/04/26 12:08:56;;;;;;;4.20;1.50;;;33.10;76.70;;;;;;5061162;28;20040;-69
2022/04/26 12:12:05;;;;;;;4.38;1.70;;;32.00;76.20;;;;;;5061116;28;20039;-69
2022/04/26 12:15:09;;;;;;;8.18;1.55;;;30.50;76.90;;;;;;5059503;28;20043;-70
2022/04/26 12:18:14;;;;;;;3.42;1.95;;;31.50;77.90;;;;;;5061268;28;20036;-70
2022/04/26 12:21:23;;;;;;;5.35;1.90;;;33.40;73.70;;;;;;5057797;28;20060;-69
2022/04/26 12:24:29;;;;;;;4.65;1.80;;;28.80;73.60;;;;;;5059667;28;20052;-69
2022/04/26 12:27:33;;;;;;;4.57;1.55;;;27.10;78.90;;;;;;5060049;28;20394;-69
2022/04/26 12:30:37;;;;;;;3.10;1.67;;;27.00;79.00;;;;;;5058400;28;20043;-69
2022/04/26 12:33:41;;;;;;;7.18;2.03;;;27.00;76.20;;;;;;5056529;28;20036;-69
2022/04/26 12:37:10;;;;;;;4.00;1.55;;;27.70;78.70;;;;;;5058549;28;20044;-69
2022/04/26 12:40:17;;;;;;;8.38;1.90;;;29.80;75.20;;;;;;5061558;28;20051;-69
2022/04/26 12:43:31;;;;;;;3.95;1.60;;;28.10;74.70;;;;;;5064820;28;20067;-69
2022/04/26 12:50:36;;;;;;;4.68;1.80;;;28.80;75.60;;;;;;5061542;28;20043;-70
2022/04/26 12:53:40;;;;;;;4.78;1.70;;;30.40;76.70;;;;;;5068861;28;20036;-70
2022/04/26 12:57:03;;;;;;;3.78;1.70;;;30.60;73.70;;;;;;5060974;28;20036;-69
2022/04/26 13:00:08;;;;;;;3.90;1.60;;;29.30;73.80;;;;;;5064593;28;20383;-69
2022/04/26 13:03:14;;;;;;;3.45;1.92;;;27.30;77.70;;;;;;5062782;28;20047;-68
2022/04/26 13:06:19;;;;;;;7.25;1.98;;;26.30;79.40;;;;;;5055821;28;20047;-69
2022/04/26 13:09:23;;;;;;;6.93;2.40;;;24.10;82.10;;;;;;5061092;28;20052;-69
2022/04/26 13:12:27;;;;;;;4.32;2.40;;;24.30;84.80;;;;;;5063788;28;20047;-68
2022/04/26 13:15:31;;;;;;;5.75;2.50;;;23.00;84.10;;;;;;5063802;28;20048;-68
2022/04/26 13:18:36;;;;;;;4.97;2.03;;;23.50;87.00;;;;;;5061618;28;20051;-69
2022/04/26 13:21:41;;;;;;;6.18;1.70;;;24.00;88.80;;;;;;5060408;28;20056;-68
2022/04/26 13:24:45;;;;;;;5.68;1.98;;;24.50;85.60;;;;;;5066150;28;20047;-69
2022/04/26 13:27:50;;;;;;;5.70;2.17;;;25.10;87.40;;;;;;5056347;28;20538;-69
2022/04/26 13:30:54;;;;;;;3.55;1.55;;;26.30;84.10;;;;;;5067535;28;20043;-68
2022/04/26 13:33:57;;;;;;;4.13;1.67;;;26.20;81.50;;;;;;5059606;28;20036;-69
2022/04/26 13:37:02;;;;;;;6.80;2.20;;;25.70;80.80;;;;;;5065881;28;20127;-68
2022/04/26 13:40:09;;;;;;;9.68;2.22;;;25.40;83.20;;;;;;5067577;28;20059;-69
2022/04/26 13:43:13;;;;;;;6.95;2.10;;;25.50;84.80;;;;;;5048056;28;20068;-69
2022/04/26 13:46:17;;;;;;;6.38;2.38;;;26.00;83.90;;;;;;5059856;28;20060;-68
2022/04/26 13:49:21;;;;;;;4.43;1.90;;;25.80;83.30;;;;;;5066390;28;20039;-69
2022/04/26 13:52:25;;;;;;;5.80;2.00;;;25.50;84.20;;;;;;5063739;28;20043;-69
2022/04/26 13:55:30;;;;;;;3.45;2.10;;;25.50;84.40;;;;;;5067322;28;20043;-69
2022/04/26 13:58:35;;;;;;;5.95;2.20;;;25.40;84.80;;;;;;5064136;28;20505;-70
2022/04/26 14:01:39;;;;;;;10.43;2.70;;;25.40;86.40;;;;;;5066253;28;20043;-69
2022/04/26 14:04:44;;;;;;;5.75;2.78;;;25.20;86.20;;;;;;5059168;28;20044;-69
2022/04/26 14:07:48;;;;;;;6.75;2.58;;;25.20;88.10;;;;;;5056845;28;20044;-68
2022/04/26 14:10:52;;;;;;;9.38;2.72;;;25.30;88.80;;;;;;5065873;28;20044;-68
2022/04/26 14:24:06;;;;;;;6.55;2.40;;;24.60;89.50;;;;;;5066984;28;20107;-68
2022/04/26 14:27:10;;;;;;;7.38;2.33;;;24.90;90.10;;;;;;5062065;28;20068;-68
2022/04/26 14:30:15;;;;;;;5.53;2.72;;;24.40;90.20;;;;;;5058388;28;20048;-68
2022/04/26 14:33:20;;;;;;;8.63;2.53;;;24.10;90.20;;;;;;5055427;28;20039;-68
2022/04/26 14:36:25;;;;;;;8.60;3.15;;;23.80;90.40;;;;;;5058597;28;20043;-69
2022/04/26 14:39:29;;;;;;;6.65;2.40;;;23.80;91.10;;;;;;5056737;28;20047;-69
2022/04/26 14:42:34;;;;;;;8.43;2.70;;;24.20;91.40;;;;;;5063161;28;20043;-67
2022/04/26 14:45:44;;;;;;;6.57;2.50;;;24.50;90.30;;;;;;5060729;28;20036;-67
2022/04/26 14:48:48;;;;;;;5.20;2.60;;;23.80;90.00;;;;;;5062888;28;20032;-68
2022/04/26 14:51:54;;;;;;;5.80;2.33;;;24.00;90.90;;;;;;5063218;28;20047;-69
2022/04/26 14:55:00;;;;;;;4.95;2.35;;;23.90;91.00;;;;;;5060503;28;20040;-68
2022/04/26 14:58:06;;;;;;;8.02;2.53;;;23.80;90.90;;;;;;5063704;28;20426;-68
2022/04/26 15:01:10;;;;;;;7.03;2.50;;;22.80;90.70;;;;;;5066584;28;20050;-68
2022/04/26 15:04:17;;;;;;;7.63;3.53;;;22.20;92.40;;;;;;5065017;28;20048;-68
2022/04/26 15:07:22;;;;;;;9.57;3.05;;;21.80;92.90;;;;;;5060536;28;20043;-68
2022/04/26 15:10:27;;;;;;;7.88;2.67;;;21.90;92.30;;;;;;5063298;28;20395;-68
2022/04/26 15:16:54;;;;;;;8.10;3.17;;;22.30;93.40;;;;;;5070414;28;20724;-69
2022/04/26 15:20:00;;;;;;;6.53;2.63;;;21.10;92.80;;;;;;5072584;28;20047;-68
2022/04/26 15:23:04;;;;;;;9.50;2.80;;;21.30;92.80;;;;;;5072551;28;20063;-69
2022/04/26 15:26:11;;;;;;;7.03;3.00;;;21.30;92.80;;;;;;5071834;28;20119;-69
2022/04/26 15:29:16;;;;;;;13.75;4.10;;;21.50;93.50;;;;;;5072326;28;20395;-69
2022/04/26 15:32:23;;;;;;;8.93;3.00;;;21.60;93.40;;;;;;5072375;28;20490;-68
2022/04/26 15:35:27;;;;;;;6.22;2.80;;;21.60;93.30;;;;;;5070419;28;20043;-68
2022/04/26 15:38:32;;;;;;;7.13;3.00;;;21.50;93.80;;;;;;5072054;28;20048;-69
2022/04/26 15:41:37;;;;;;;7.50;2.70;;;21.40;94.40;;;;;;5072269;28;20052;-69
2022/04/26 15:44:41;;;;;;;10.40;2.90;;;21.10;94.60;;;;;;5071881;28;20051;-69
2022/04/26 15:47:46;;;;;;;8.63;3.38;;;21.00;94.50;;;;;;5071694;28;20055;-68
2022/04/26 15:50:51;;;;;;;8.90;3.08;;;20.90;94.90;;;;;;5071882;28;20051;-69
2022/04/26 15:53:55;;;;;;;6.93;3.03;;;21.10;94.80;;;;;;5071197;28;20051;-69
2022/04/26 15:57:00;;;;;;;8.85;3.15;;;21.30;94.90;;;;;;5071294;28;20051;-69
2022/04/26 16:00:05;;;;;;;7.95;2.70;;;21.40;95.60;;;;;;5071494;28;20589;-68
2022/04/26 16:03:12;;;;;;;11.40;3.45;;;21.50;95.40;;;;;;5071452;28;20048;-68
2022/04/26 16:06:16;;;;;;;9.40;3.42;;;21.40;94.20;;;;;;5070640;28;20115;-68
2022/04/26 16:22:59;;;;;;;9.60;2.38;;;21.30;94.00;;;;;;5071127;28;20063;-68
2022/04/26 16:26:05;;;;;;;7.63;2.70;;;21.00;94.40;;;;;;5070671;28;20055;-69
2022/04/26 16:29:10;;;;;;;7.15;2.70;;;20.70;94.50;;;;;;5070988;28;20059;-69
2022/04/26 16:32:14;;;;;;;6.03;2.70;;;20.50;95.60;;;;;;5070616;28;20485;-68
2022/04/26 16:35:19;;;;;;;5.05;2.42;;;20.30;95.30;;;;;;5070509;28;20048;-69
2022/04/26 16:38:24;;;;;;;6.88;3.03;;;20.20;95.90;;;;;;5070778;28;20064;-69
2022/04/26 16:41:28;;;;;;;8.85;2.63;;;20.20;96.30;;;;;;5070751;28;20059;-69
2022/04/26 16:44:32;;;;;;;5.30;2.40;;;20.20;96.50;;;;;;5071181;28;20497;-69
2022/04/26 16:47:37;;;;;;;6.82;2.92;;;20.00;95.90;;;;;;5070219;28;20047;-68
2022/04/26 16:50:42;;;;;;;14.75;3.35;;;19.80;96.60;;;;;;5070545;28;20039;-69
2022/04/26 16:53:46;;;;;;;11.10;3.13;;;19.70;96.70;;;;;;5070720;28;20039;-69
2022/04/26 16:56:52;;;;;;;5.28;2.65;;;19.70;96.50;;;;;;5070747;28;20052;-69
2022/04/26 16:59:57;;;;;;;12.05;3.20;;;19.50;96.80;;;;;;5070289;28;20051;-69
2022/04/26 17:03:02;;;;;;;5.20;2.72;;;19.40;96.50;;;;;;5070784;28;20055;-68
2022/04/26 17:06:06;;;;;;;5.20;2.47;;;19.30;96.60;;;;;;5056721;28;20044;-68
2022/04/26 17:09:11;;;;;;;7.00;2.35;;;19.00;97.30;;;;;;5070370;28;20040;-69
2022/04/26 17:12:16;;;;;;;5.30;2.40;;;19.00;97.70;;;;;;5070795;28;20498;-69
2022/04/26 17:15:20;;;;;;;6.70;2.10;;;19.00;97.90;;;;;;5070689;28;20055;-69
2022/04/26 17:18:24;;;;;;;4.72;2.60;;;18.80;97.60;;;;;;5070179;28;20051;-69
2022/04/26 17:21:28;;;;;;;5.85;2.33;;;18.60;97.20;;;;;;5070300;28;20350;-69
2022/04/26 17:27:55;;;;;;;;;;;18.40;98.10;;;;;;5057957;28;20059;-69
2022/04/26 17:30:59;;;;;;;5.97;2.50;;;18.20;98.80;;;;;;5070253;28;20278;-69
2022/04/26 17:34:03;;;;;;;8.45;2.70;;;18.10;99.00;;;;;;5070202;28;20507;-69
2022/04/26 17:37:08;;;;;;;3.63;2.50;;;18.00;99.20;;;;;;5070094;28;20051;-68
2022/04/26 17:40:15;;;;;;;6.28;2.80;;;17.80;99.30;;;;;;5070003;28;20130;-69
2022/04/26 17:43:19;;;;;;;5.63;2.63;;;17.60;99.90;;;;;;5070307;28;20055;-69
2022/04/26 17:46:24;;;;;;;5.57;2.83;;;17.50;99.90;;;;;;5069400;28;20044;-69
2022/04/26 17:49:28;;;;;;;10.20;3.30;;;17.40;99.90;;;;;;5070119;28;20035;-69
2022/04/26 17:52:33;;;;;;;8.38;2.60;;;17.20;99.90;;;;;;5070104;28;20055;-68
2022/04/26 17:59:01;;;;;;;6.32;2.60;;;16.80;99.90;;;;;;5070164;28;20056;-69
2022/04/26 18:02:06;;;;;;;5.28;2.47;;;16.60;99.90;;;;;;5069849;28;20043;-69
2022/04/26 18:05:10;;;;;;;6.65;2.92;;;16.50;99.90;;;;;;5069689;28;20510;-69
2022/04/26 18:08:14;;;;;;;4.85;2.58;;;16.30;99.90;;;;;;5069670;28;20044;-69
2022/04/26 18:11:18;;;;;;;7.07;2.55;;;16.10;99.90;;;;;;5069767;28;20383;-69
2022/04/26 18:14:22;;;;;;;7.22;2.78;;;15.90;99.90;;;;;;5070167;28;20052;-69
2022/04/26 18:17:27;;;;;;;5.30;2.50;;;15.80;99.90;;;;;;5072576;28;20087;-69
2022/04/26 18:20:31;;;;;;;7.18;3.05;;;15.70;99.90;;;;;;5073595;28;20058;-69
2022/04/26 18:23:34;;;;;;;9.90;4.38;;;15.50;99.90;;;;;;5073595;28;20071;-69
2022/04/26 18:26:40;;;;;;;6.38;3.72;;;15.40;99.90;;;;;;5072459;28;20047;-69
2022/04/26 18:29:45;;;;;;;9.02;3.70;;;15.30;99.90;;;;;;5073646;28;20514;-69
2022/04/26 18:32:50;;;;;;;5.30;2.72;;;15.30;99.90;;;;;;5073035;28;20238;-69
2022/04/26 18:35:55;;;;;;;5.93;3.33;;;15.10;99.90;;;;;;5073308;28;20390;-70
2022/04/26 18:38:59;;;;;;;6.22;3.72;;;15.00;99.90;;;;;;5073183;28;20051;-69
2022/04/26 18:42:04;;;;;;;7.72;3.70;;;14.90;99.90;;;;;;5072925;28;20059;-69
2022/04/26 18:45:08;;;;;;;9.25;4.05;;;14.80;99.90;;;;;;5073187;28;20047;-70
2022/04/26 18:48:12;;;;;;;9.32;4.38;;;14.70;99.90;;;;;;5060375;28;20044;-69
2022/04/26 18:51:17;;;;;;;7.82;4.65;;;14.60;99.90;;;;;;5073054;28;20043;-69
2022/04/26 18:54:22;;;;;;;9.20;4.35;;;14.60;99.90;;;;;;5073194;28;20118;-69
2022/04/26 18:57:26;;;;;;;7.45;3.78;;;14.50;99.90;;;;;;5059690;28;20040;-70
2022/04/26 19:00:30;;;;;;;12.02;4.15;;;14.50;99.90;;;;;;5072649;28;20047;-70
2022/04/26 19:03:35;;;;;;;8.18;3.40;;;14.50;99.90;;;;;;5072894;28;20040;-69
2022/04/26 19:06:40;;;;;;;5.30;3.03;;;14.40;99.90;;;;;;5072063;28;20047;-69
2022/04/26 19:13:09;;;;;;;10.05;3.88;;;14.30;99.90;;;;;;5057563;28;20035;-69
2022/04/26 19:16:13;;;;;;;12.57;3.47;;;14.30;99.90;;;;;;5071937;28;20047;-69
2022/04/26 19:19:17;;;;;;;8.18;3.17;;;14.30;99.90;;;;;;5072125;28;20502;-69
2022/04/26 19:22:21;;;;;;;8.07;3.90;;;14.30;99.90;;;;;;5072519;28;20056;-70
2022/04/26 19:25:25;;;;;;;9.02;4.70;;;14.20;99.90;;;;;;5072406;28;20048;-69
2022/04/26 19:28:31;;;;;;;6.07;3.22;;;14.20;99.90;;;;;;5070937;28;20044;-70
2022/04/26 19:31:36;;;;;;;9.82;4.22;;;14.20;99.90;;;;;;5072212;28;20048;-69
2022/04/26 19:34:40;;;;;;;8.27;5.13;;;14.10;99.90;;;;;;5072048;28;20048;-69
2022/04/26 19:37:44;;;;;;;10.95;4.13;;;14.00;99.90;;;;;;5071883;28;20068;-69
2022/04/26 19:40:49;;;;;;;8.50;4.60;;;14.00;99.90;;;;;;5072222;28;20044;-69
2022/04/26 19:43:53;;;;;;;9.65;4.25;;;14.00;99.90;;;;;;5072406;28;20056;-69
2022/04/26 19:46:58;;;;;;;9.93;4.30;;;13.90;99.90;;;;;;5071493;28;20056;-69
2022/04/26 19:53:25;;;;;;;8.88;4.25;;;13.80;99.90;;;;;;5071739;28;20047;-69
2022/04/26 19:56:30;;;;;;;8.25;4.50;;;13.80;99.90;;;;;;5071597;28;20047;-69
2022/04/26 19:59:37;;;;;;;9.82;5.05;;;13.80;99.90;;;;;;5071795;28;20055;-69
2022/04/26 20:02:41;;;;;;;14.88;5.50;;;13.70;99.90;;;;;;5071426;28;20501;-69
2022/04/26 20:05:50;;;;;;;8.23;5.35;;;13.60;99.90;;;;;;5071457;28;20063;-69
2022/04/26 20:08:54;;;;;;;13.43;5.50;;;13.60;99.90;;;;;;5071486;28;20059;-69
2022/04/26 20:11:58;;;;;;;10.32;4.93;;;13.50;99.90;;;;;;5071508;28;20052;-69
2022/04/26 20:15:03;;;;;;;10.50;4.20;;;13.50;99.90;;;;;;5059314;28;20040;-69
2022/04/26 20:18:07;;;;;;;9.98;3.70;;;13.50;99.90;;;;;;5070787;28;20505;-69
2022/04/26 20:21:11;;;;;;;8.32;4.30;;;13.40;99.90;;;;;;5071219;28;20055;-69
2022/04/26 20:24:15;;;;;;;12.27;4.60;;;13.40;99.90;;;;;;5058770;28;20064;-69
2022/04/26 20:30:42;;;;;;;7.15;4.00;;;13.30;99.90;;;;;;5071110;28;20039;-69
2022/04/26 20:33:46;;;;;;;10.10;5.28;;;13.20;99.90;;;;;;5071205;28;20050;-69
2022/04/26 20:36:50;;;;;;;9.63;4.63;;;13.20;99.90;;;;;;5070579;28;20055;-69
2022/04/26 20:39:55;;;;;;;8.82;4.45;;;13.20;99.90;;;;;;5070677;28;20396;-69